createdAt,value
2023-08-08T00:04:18.624Z,76.55
2023-08-08T00:09:21.713Z,75.44
2023-08-08T00:14:25.530Z,74.50
2023-08-08T00:19:28.544Z,73.63
2023-08-08T00:24:31.270Z,74.14
2023-08-08T00:29:34.226Z,73.11
2023-08-08T00:34:37.133Z,72.71
2023-08-08T00:39:40.517Z,71.85
2023-08-08T00:44:43.276Z,71.29
2023-08-08T00:49:49.676Z,70.52
2023-08-08T00:54:53.410Z,70.19
2023-08-08T00:59:56.274Z,70.17
2023-08-08T01:04:59.195Z,69.71
2023-08-08T01:10:09.808Z,69.50
2023-08-08T01:15:14.106Z,69.72
2023-08-08T01:20:18.101Z,69.60
2023-08-08T01:25:21.553Z,69.31
2023-08-08T01:30:24.324Z,69.06
2023-08-08T01:35:31.769Z,69.30
2023-08-08T01:40:36.556Z,69.54
2023-08-08T01:45:39.933Z,69.73
2023-08-08T01:50:42.847Z,69.79
2023-08-08T01:55:45.584Z,70.01
2023-08-08T02:00:48.727Z,70.32
2023-08-08T02:05:51.645Z,70.77
2023-08-08T02:10:54.622Z,70.59
2023-08-08T02:15:57.432Z,70.93
2023-08-08T02:21:00.266Z,71.33
2023-08-08T02:26:03.526Z,70.94
2023-08-08T02:31:06.265Z,71.43
2023-08-08T02:36:09.021Z,71.59
2023-08-08T02:41:11.825Z,71.67
2023-08-08T02:46:14.848Z,71.88
2023-08-08T02:51:17.598Z,72.24
2023-08-08T02:56:20.351Z,72.36
2023-08-08T03:01:23.441Z,72.99
2023-08-08T03:06:26.440Z,72.82
2023-08-08T03:11:29.399Z,73.04
2023-08-08T03:16:32.250Z,73.10
2023-08-08T03:21:35.175Z,73.30
2023-08-08T03:26:38.049Z,73.50
2023-08-08T03:31:40.953Z,73.60
2023-08-08T03:36:43.784Z,73.74
2023-08-08T03:41:46.663Z,74.07
2023-08-08T03:46:51.333Z,74.42
2023-08-08T03:51:55.200Z,74.43
2023-08-08T03:56:59.596Z,74.44
2023-08-08T04:02:03.908Z,74.55
2023-08-08T04:07:06.990Z,74.65
2023-08-08T04:12:10.072Z,74.64
2023-08-08T04:17:13.060Z,74.75
2023-08-08T04:22:16.867Z,74.66
2023-08-08T04:27:19.746Z,74.80
2023-08-08T04:32:22.557Z,75.10
2023-08-08T04:37:25.556Z,75.51
2023-08-08T04:42:28.364Z,75.61
2023-08-08T04:47:31.297Z,75.66
2023-08-08T04:52:34.725Z,75.50
2023-08-08T04:57:37.676Z,75.98
2023-08-08T05:02:42.373Z,75.62
2023-08-08T05:07:45.390Z,75.71
2023-08-08T05:12:48.236Z,75.10
2023-08-08T05:17:51.164Z,75.29
2023-08-08T05:22:54.103Z,74.99
2023-08-08T05:27:56.990Z,74.81
2023-08-08T05:32:59.992Z,74.41
2023-08-08T05:38:02.851Z,74.33
2023-08-08T05:43:05.837Z,74.09
2023-08-08T05:48:11.018Z,73.07
2023-08-08T05:53:14.293Z,72.75
2023-08-08T05:58:17.477Z,72.37
2023-08-08T06:03:20.292Z,71.60
2023-08-08T06:08:23.302Z,70.42
2023-08-08T06:13:26.276Z,69.49
2023-08-08T06:18:29.148Z,69.69
2023-08-08T06:23:32.005Z,68.83
2023-08-08T06:28:35.221Z,68.18
2023-08-08T06:33:38.060Z,67.56
2023-08-08T06:38:40.967Z,67.16
2023-08-08T06:43:45.278Z,66.43
2023-08-08T06:48:49.283Z,65.52
2023-08-08T06:53:53.646Z,65.03
2023-08-08T06:58:57.120Z,63.69
2023-08-08T07:04:00.687Z,62.42
2023-08-08T07:09:07.478Z,60.40
2023-08-08T07:14:10.628Z,59.79
2023-08-08T07:19:14.197Z,58.86
2023-08-08T07:24:21.101Z,58.50
2023-08-08T07:29:24.055Z,56.78
2023-08-08T07:34:26.998Z,56.37
2023-08-08T07:39:30.238Z,56.08
2023-08-08T07:44:35.893Z,57.02
2023-08-08T07:49:39.168Z,57.82
2023-08-08T07:54:42.539Z,56.80
2023-08-08T07:59:45.616Z,56.54
2023-08-08T08:04:48.520Z,57.25
2023-08-08T08:09:51.708Z,56.76
2023-08-08T08:14:54.641Z,56.26
2023-08-08T08:19:58.006Z,57.46
2023-08-08T08:25:01.413Z,57.21
2023-08-08T08:30:06.497Z,57.46
2023-08-08T08:35:10.295Z,56.09
2023-08-08T08:40:13.748Z,55.94
2023-08-08T08:45:21.091Z,56.47
2023-08-08T08:50:27.647Z,55.47
2023-08-08T08:55:30.450Z,54.61
2023-08-08T09:00:35.084Z,55.28
2023-08-08T09:05:42.321Z,55.45
2023-08-08T09:10:45.657Z,55.43
2023-08-08T09:15:50.576Z,56.04
2023-08-08T09:20:53.597Z,54.83
2023-08-08T09:25:56.780Z,53.01
2023-08-08T09:31:00.314Z,50.12
2023-08-08T09:36:03.726Z,47.97
2023-08-08T09:41:07.652Z,47.86
2023-08-08T09:46:11.534Z,48.45
2023-08-08T09:51:16.317Z,47.94
2023-08-08T09:56:20.433Z,48.46
2023-08-08T10:01:27.344Z,50.26
2023-08-08T10:06:30.496Z,50.69
2023-08-08T10:11:35.469Z,50.18
2023-08-08T10:16:39.324Z,51.10
2023-08-08T10:21:45.112Z,50.99
2023-08-08T10:26:56.036Z,49.36
2023-08-08T10:32:02.236Z,47.63
2023-08-08T10:37:06.962Z,45.71
2023-08-08T10:42:09.799Z,45.72
2023-08-08T10:47:12.676Z,45.13
2023-08-08T10:52:15.885Z,44.58
2023-08-08T10:57:20.644Z,44.62
2023-08-08T11:02:24.307Z,44.20
2023-08-08T11:07:29.808Z,44.25
2023-08-08T11:12:32.721Z,43.81
2023-08-08T11:17:37.533Z,45.15
2023-08-08T11:22:40.380Z,45.57
2023-08-08T11:27:51.284Z,43.53
2023-08-08T11:38:02.244Z,43.80
2023-08-08T11:43:05.444Z,44.50
2023-08-08T11:48:09.619Z,44.58
2023-08-08T11:53:13.198Z,44.91
2023-08-08T11:58:16.354Z,43.66
2023-08-08T12:03:22.221Z,42.92
2023-08-08T12:08:25.305Z,43.16
2023-08-08T12:13:29.388Z,42.48
2023-08-08T12:18:32.322Z,42.34
2023-08-08T12:23:36.677Z,41.82
2023-08-08T12:28:39.670Z,42.47
2023-08-08T12:33:42.540Z,42.09
2023-08-08T12:38:47.010Z,42.16
2023-08-08T12:43:51.193Z,42.48
2023-08-08T12:48:54.231Z,43.43
2023-08-08T12:53:59.330Z,42.77
2023-08-08T12:59:04.202Z,42.70
2023-08-08T13:04:18.994Z,41.80
2023-08-08T13:09:22.804Z,40.75
2023-08-08T13:14:25.763Z,40.26
2023-08-08T13:19:28.657Z,40.45
2023-08-08T13:24:31.810Z,41.03
2023-08-08T13:29:34.683Z,41.74
2023-08-08T13:34:37.573Z,42.84
2023-08-08T13:39:40.601Z,50.33
2023-08-08T13:44:46.260Z,56.07
2023-08-08T13:49:56.228Z,58.64
2023-08-08T13:55:02.666Z,60.85
2023-08-08T14:00:08.082Z,62.27
2023-08-08T14:05:12.649Z,63.66
2023-08-08T14:10:18.319Z,64.65
2023-08-08T14:15:22.473Z,64.83
2023-08-08T14:20:28.672Z,64.99
2023-08-08T14:25:31.714Z,65.12
2023-08-08T14:30:34.658Z,61.59
2023-08-08T14:35:37.885Z,58.60
2023-08-08T14:40:40.906Z,54.80
2023-08-08T14:45:43.761Z,54.65
2023-08-08T14:50:46.718Z,54.52
2023-08-08T14:55:50.283Z,54.85
2023-08-08T15:00:53.157Z,55.13
2023-08-08T15:05:55.991Z,55.93
2023-08-08T15:10:58.838Z,56.06
2023-08-08T15:16:02.152Z,56.54
2023-08-08T15:21:05.413Z,56.96
2023-08-08T15:26:08.309Z,54.78
2023-08-08T15:31:11.169Z,53.41
2023-08-08T15:36:14.172Z,51.28
2023-08-08T15:41:17.161Z,50.17
2023-08-08T15:46:20.063Z,50.91
2023-08-08T15:51:22.888Z,51.54
2023-08-08T15:56:25.740Z,51.29
2023-08-08T16:01:28.726Z,52.55
2023-08-08T16:06:31.632Z,53.97
2023-08-08T16:11:34.485Z,53.68
2023-08-08T16:16:39.989Z,52.59
2023-08-08T16:21:42.853Z,51.36
2023-08-08T16:26:45.721Z,51.54
2023-08-08T16:31:48.569Z,51.28
2023-08-08T16:36:51.367Z,51.65
2023-08-08T16:41:59.702Z,52.09
2023-08-08T16:47:04.374Z,52.69
2023-08-08T16:52:08.609Z,53.30
2023-08-08T16:57:15.114Z,53.34
2023-08-08T17:02:20.759Z,51.69
2023-08-08T17:07:26.026Z,50.56
2023-08-08T17:12:29.099Z,50.73
2023-08-08T17:17:51.160Z,50.87
2023-08-08T17:22:58.187Z,51.31
2023-08-08T17:28:04.582Z,52.33
2023-08-08T17:33:07.639Z,53.32
2023-08-08T17:38:10.552Z,54.03
2023-08-08T17:43:13.471Z,55.23
2023-08-08T17:48:16.585Z,56.24
2023-08-08T17:53:19.418Z,56.86
2023-08-08T17:58:22.460Z,57.91
2023-08-08T18:03:25.280Z,58.68
2023-08-08T18:08:28.179Z,59.38
2023-08-08T18:13:31.018Z,60.25
2023-08-08T18:18:33.987Z,60.94
2023-08-08T18:23:37.900Z,61.64
2023-08-08T18:28:41.309Z,62.37
2023-08-08T18:33:44.805Z,62.58
2023-08-08T18:38:47.648Z,63.07
2023-08-08T18:43:51.125Z,63.55
2023-08-08T18:48:54.532Z,64.08
2023-08-08T18:53:59.696Z,64.67
2023-08-08T18:59:03.417Z,64.79
2023-08-08T19:04:08.004Z,65.08
2023-08-08T19:09:17.971Z,65.39
2023-08-08T19:14:24.156Z,65.55
2023-08-08T19:19:35.336Z,66.03
2023-08-08T19:24:41.235Z,66.19
2023-08-08T19:29:44.275Z,66.68
2023-08-08T19:34:49.803Z,67.05
2023-08-08T19:39:52.727Z,67.91
2023-08-08T19:44:55.541Z,68.46
2023-08-08T19:49:58.366Z,68.50
2023-08-08T19:55:01.194Z,69.10
2023-08-08T20:00:05.202Z,69.31
2023-08-08T20:05:09.384Z,69.59
2023-08-08T20:10:12.264Z,70.44
2023-08-08T20:15:15.190Z,70.83
2023-08-08T20:20:18.076Z,71.14
2023-08-08T20:25:20.867Z,71.29
2023-08-08T20:30:23.755Z,71.37
2023-08-08T20:35:26.651Z,71.43
2023-08-08T20:40:30.811Z,71.36
2023-08-08T20:45:35.640Z,71.35
2023-08-08T20:50:39.798Z,71.36
2023-08-08T20:55:44.477Z,71.30
2023-08-08T21:00:50.595Z,71.17
2023-08-08T21:05:53.817Z,71.13
2023-08-08T21:10:57.488Z,71.02
2023-08-08T21:16:00.779Z,71.07
2023-08-08T21:21:07.506Z,71.28
2023-08-08T21:26:20.624Z,71.25
2023-08-08T21:31:42.726Z,71.81
2023-08-08T21:36:47.085Z,72.60
2023-08-08T21:41:49.994Z,72.93
2023-08-08T21:46:53.066Z,73.39
2023-08-08T21:51:55.852Z,74.03
2023-08-08T21:56:58.700Z,74.20
2023-08-08T22:02:02.043Z,74.00
2023-08-08T22:07:05.129Z,74.13
2023-08-08T22:12:08.245Z,74.63
2023-08-08T22:17:11.130Z,74.71
2023-08-08T22:22:13.928Z,74.47
2023-08-08T22:27:16.748Z,74.70
2023-08-08T22:32:19.532Z,74.63
2023-08-08T22:37:22.474Z,74.58
2023-08-08T22:42:25.285Z,74.55
2023-08-08T22:47:28.483Z,74.62
2023-08-08T22:52:36.058Z,74.42
2023-08-08T22:57:39.872Z,74.70
2023-08-08T23:02:43.072Z,74.93
2023-08-08T23:07:46.054Z,75.20
2023-08-08T23:12:48.882Z,75.26
2023-08-08T23:17:51.679Z,75.55
2023-08-08T23:22:54.543Z,75.36
2023-08-08T23:27:57.354Z,75.97
2023-08-08T23:33:01.067Z,75.84
2023-08-08T23:38:04.843Z,76.78
2023-08-08T23:43:07.631Z,77.74
2023-08-08T23:48:10.438Z,78.86
2023-08-08T23:53:14.397Z,79.55
2023-08-08T23:58:17.221Z,80.17
